Time;durP1;ratioP1;P1;durP2;ratioP2;P2;SDS_P1;SDS_P2;PMS_P1;PMS_P2;Temp;Humidity;BMP_temperature;BMP_pressure;BME280_temperature;BME280_humidity;BME280_pressure;Samples;Min_cycle;Max_cycle;Signal;HPM_P1;HPM_P2
2021/03/17 00:00:15;;;;;;;42.95;21.10;;;;;;;3.00;100.00;98797.34;4327583;81;28543;-73
2021/03/17 00:06:37;;;;;;;45.80;22.90;;;;;;;3.00;100.00;98802.65;4337512;80;28597;-74
2021/03/17 00:12:59;;;;;;;39.40;21.33;;;;;;;3.01;100.00;98785.70;4343416;80;28590;-73
2021/03/17 00:19:21;;;;;;;42.27;20.88;;;;;;;2.96;100.00;98789.41;4325038;81;28551;-73
2021/03/17 00:25:41;;;;;;;46.00;22.58;;;;;;;2.96;100.00;98792.06;4326543;81;28571;-73
2021/03/17 00:32:03;;;;;;;46.10;22.30;;;;;;;3.04;100.00;98783.98;4320562;81;28624;-74
2021/03/17 00:38:24;;;;;;;44.05;22.60;;;;;;;2.77;100.00;98784.20;4343949;81;28608;-73
2021/03/17 00:44:45;;;;;;;46.88;22.75;;;;;;;2.88;100.00;98781.06;4330828;81;28585;-74
2021/03/17 00:51:06;;;;;;;49.80;22.80;;;;;;;2.93;100.00;98781.34;4325060;80;28587;-74
2021/03/17 00:57:26;;;;;;;43.90;22.55;;;;;;;2.84;100.00;98779.80;4399680;79;28628;-74
2021/03/17 01:03:29;;;;;;;40.52;20.40;;;;;;;2.87;100.00;98781.27;4411123;79;28617;-72
2021/03/17 01:09:32;;;;;;;42.98;21.62;;;;;;;2.94;100.00;98783.47;4399209;80;28628;-74
2021/03/17 01:15:35;;;;;;;39.80;20.55;;;;;;;2.98;100.00;98790.06;4403483;80;28568;-74
2021/03/17 01:21:38;;;;;;;40.63;20.37;;;;;;;2.85;100.00;98785.42;4397156;79;28565;-74
2021/03/17 01:27:41;;;;;;;48.48;22.70;;;;;;;3.06;100.00;98791.78;4396000;79;28633;-73
2021/03/17 01:33:44;;;;;;;42.35;21.33;;;;;;;2.98;100.00;98794.05;4402257;80;28607;-73
2021/03/17 01:39:46;;;;;;;38.30;20.05;;;;;;;2.96;100.00;98788.60;4400476;79;28633;-73
2021/03/17 01:45:50;;;;;;;40.33;19.85;;;;;;;3.07;100.00;98790.77;4431446;79;28545;-73
2021/03/17 01:51:52;;;;;;;42.25;21.52;;;;;;;3.09;100.00;98786.08;4272498;81;28556;-73
2021/03/17 01:57:54;;;;;;;38.98;19.48;;;;;;;3.01;100.00;98779.06;4258771;81;28644;-73
2021/03/17 02:03:57;;;;;;;35.00;17.52;;;;;;;2.85;100.00;98782.77;4284820;80;28583;-73
2021/03/17 02:09:59;;;;;;;40.65;19.80;;;;;;;2.89;100.00;98781.37;4242184;81;28555;-73
2021/03/17 02:16:12;;;;;;;33.25;16.75;;;;;;;2.88;100.00;98780.25;4202437;82;28612;-74
2021/03/17 02:22:44;;;;;;;34.78;17.67;;;;;;;2.91;100.00;98780.67;4278020;80;28575;-74
2021/03/17 02:29:40;;;;;;;34.83;18.45;;;;;;;2.92;100.00;98783.67;4339373;79;28545;-73
2021/03/17 02:35:49;;;;;;;38.83;20.15;;;;;;;3.02;100.00;98779.38;4368045;78;28564;-72
2021/03/17 02:42:22;;;;;;;33.80;17.17;;;;;;;2.87;100.00;98768.80;4324210;81;28616;-72
2021/03/17 02:48:31;;;;;;;40.48;19.98;;;;;;;2.91;100.00;98774.03;4257268;81;28647;-73
2021/03/17 02:54:35;;;;;;;37.08;18.60;;;;;;;2.85;100.00;98776.13;4325286;80;28540;-73
2021/03/17 03:00:39;;;;;;;37.93;19.05;;;;;;;2.83;100.00;98776.83;4329857;81;28559;-73
2021/03/17 03:06:45;;;;;;;40.60;20.05;;;;;;;2.89;100.00;98780.05;4332981;81;28629;-72
2021/03/17 03:12:49;;;;;;;36.50;18.87;;;;;;;2.73;100.00;98778.95;4340129;81;28627;-73
2021/03/17 03:18:53;;;;;;;35.43;19.62;;;;;;;2.92;100.00;98769.06;4338865;81;35377;-73
2021/03/17 03:24:56;;;;;;;35.95;18.40;;;;;;;2.86;100.00;98768.48;4323135;80;28559;-73
2021/03/17 03:30:59;;;;;;;33.13;17.50;;;;;;;2.97;100.00;98768.51;4317549;80;28556;-73
2021/03/17 03:37:02;;;;;;;39.18;19.02;;;;;;;3.02;100.00;98776.72;4335888;80;28620;-73
2021/03/17 03:43:06;;;;;;;37.67;18.95;;;;;;;2.99;100.00;98777.10;4330672;80;28575;-74
2021/03/17 03:49:08;;;;;;;37.13;18.87;;;;;;;3.02;100.00;98782.52;4308769;80;28673;-73
2021/03/17 03:55:21;;;;;;;38.25;19.87;;;;;;;3.00;100.00;98783.22;4321266;81;28586;-73
2021/03/17 04:01:45;;;;;;;38.42;19.50;;;;;;;2.82;100.00;98788.95;4246410;81;28557;-75
2021/03/17 04:07:53;;;;;;;39.55;19.48;;;;;;;3.00;100.00;98790.70;4316848;80;28567;-74
2021/03/17 04:13:59;;;;;;;36.33;18.23;;;;;;;2.96;100.00;98788.08;4249906;81;28611;-75
2021/03/17 04:20:07;;;;;;;38.63;18.55;;;;;;;3.00;100.00;98790.70;4261561;81;28573;-75
2021/03/17 04:26:11;;;;;;;38.75;19.32;;;;;;;2.95;100.00;98790.42;4245491;81;28563;-74
2021/03/17 04:32:16;;;;;;;35.63;18.52;;;;;;;2.88;100.00;98788.22;4326617;80;28549;-74
2021/03/17 04:38:20;;;;;;;39.88;19.05;;;;;;;2.98;100.00;98789.23;4256596;81;28624;-74
2021/03/17 04:44:23;;;;;;;38.30;18.77;;;;;;;2.90;100.00;98794.97;4309715;82;28577;-75
2021/03/17 04:50:28;;;;;;;39.50;19.12;;;;;;;2.86;100.00;98796.85;4238002;81;28627;-74
2021/03/17 04:56:32;;;;;;;37.55;19.25;;;;;;;2.81;100.00;98796.08;4317386;80;47383;-73
2021/03/17 05:02:38;;;;;;;45.73;21.73;;;;;;;2.86;100.00;98797.69;4306805;81;28558;-74
2021/03/17 05:08:45;;;;;;;42.90;20.08;;;;;;;2.69;100.00;98811.69;4255710;81;28560;-74
2021/03/17 05:14:49;;;;;;;39.05;19.35;;;;;;;2.79;100.00;98812.22;4263573;81;28671;-73
2021/03/17 05:20:53;;;;;;;38.83;18.80;;;;;;;2.83;100.00;98810.52;4314774;80;29013;-72
2021/03/17 05:26:56;;;;;;;40.40;19.42;;;;;;;2.93;100.00;98814.53;4248759;81;29036;-73
2021/03/17 05:33:00;;;;;;;42.05;20.90;;;;;;;3.00;100.00;98817.75;4309013;81;28554;-72
2021/03/17 05:39:03;;;;;;;45.08;20.55;;;;;;;2.74;100.00;98831.85;4247570;81;28596;-72
2021/03/17 05:45:10;;;;;;;38.50;18.35;;;;;;;2.81;100.00;98825.30;4309749;82;28548;-75
2021/03/17 05:51:14;;;;;;;39.78;18.50;;;;;;;2.84;100.00;98829.41;4234748;81;28728;-74
2021/03/17 05:57:16;;;;;;;39.35;19.80;;;;;;;3.08;100.00;98823.48;4313548;82;28595;-73
2021/03/17 06:03:20;;;;;;;40.63;20.23;;;;;;;2.97;100.00;98837.56;4271086;81;28541;-73
2021/03/17 06:09:25;;;;;;;38.80;19.57;;;;;;;2.71;100.00;98838.87;4241391;83;29000;-75
2021/03/17 06:15:29;;;;;;;34.95;17.27;;;;;;;2.81;100.00;98841.22;4305624;80;28586;-76
2021/03/17 06:21:32;;;;;;;40.58;19.75;;;;;;;2.93;100.00;98848.22;4240086;81;28581;-74
2021/03/17 06:27:37;;;;;;;36.58;17.12;;;;;;;2.85;100.00;98854.47;4313680;80;28576;-75
2021/03/17 06:33:43;;;;;;;31.83;15.80;;;;;;;3.15;100.00;98860.22;4245150;81;28629;-76
2021/03/17 06:39:47;;;;;;;39.03;18.10;;;;;;;3.31;100.00;98867.13;4296245;80;28610;-77
2021/03/17 06:45:49;;;;;;;33.65;16.40;;;;;;;3.52;100.00;98866.34;4249823;81;28634;-77
2021/03/17 06:51:52;;;;;;;33.90;17.05;;;;;;;3.59;100.00;98872.56;4308172;80;28615;-77
2021/03/17 06:57:55;;;;;;;38.25;18.02;;;;;;;3.54;100.00;98864.31;4319935;80;28554;-74
2021/03/17 07:04:10;;;;;;;40.35;18.25;;;;;;;3.79;100.00;98864.44;4252294;81;28545;-74
2021/03/17 07:10:13;;;;;;;34.85;17.62;;;;;;;3.56;100.00;98874.77;4312407;80;28649;-74
2021/03/17 07:16:33;;;;;;;36.50;17.30;;;;;;;3.76;100.00;98878.44;4236360;81;28576;-75
2021/03/17 07:22:37;;;;;;;34.23;16.20;;;;;;;3.68;100.00;98882.55;4321960;80;28974;-75
2021/03/17 07:28:56;;;;;;;32.67;15.70;;;;;;;3.66;100.00;98883.75;4309268;80;28565;-76
2021/03/17 07:34:58;;;;;;;33.13;15.80;;;;;;;4.09;100.00;98879.72;4274150;82;28602;-75
2021/03/17 07:41:01;;;;;;;32.10;15.78;;;;;;;3.98;100.00;98882.41;4299177;80;28539;-75
2021/03/17 07:47:07;;;;;;;25.60;12.90;;;;;;;4.11;100.00;98886.19;4271935;83;28649;-75
2021/03/17 07:53:19;;;;;;;34.18;15.88;;;;;;;3.77;100.00;98901.85;4241055;81;28555;-75
2021/03/17 07:59:22;;;;;;;27.73;13.68;;;;;;;3.82;100.00;98909.27;4324784;81;28579;-76
2021/03/17 08:05:25;;;;;;;22.13;11.05;;;;;;;4.03;100.00;98897.27;4298191;81;28623;-75
2021/03/17 08:11:28;;;;;;;29.05;15.15;;;;;;;4.73;100.00;98905.03;4326432;81;28641;-76
2021/03/17 08:17:36;;;;;;;26.73;13.60;;;;;;;4.52;100.00;98911.24;4280076;81;28682;-75
2021/03/17 08:30:14;;;;;;;26.10;11.85;;;;;;;4.56;100.00;98908.00;4456467;79;68921;-76
2021/03/17 08:36:17;;;;;;;22.55;11.78;;;;;;;5.12;100.00;98917.42;4380842;78;28538;-78
2021/03/17 08:42:31;;;;;;;22.70;11.60;;;;;;;4.38;100.00;98932.45;4385810;78;28607;-76
2021/03/17 08:48:59;;;;;;;22.17;11.38;;;;;;;4.31;100.00;98934.23;4392214;80;28549;-77
2021/03/17 08:55:12;;;;;;;22.00;11.05;;;;;;;4.50;100.00;98941.23;4351023;78;28568;-79
2021/03/17 09:01:26;;;;;;;21.27;9.80;;;;;;;4.79;100.00;98936.23;4391311;80;28615;-76
2021/03/17 09:07:42;;;;;;;19.80;9.60;;;;;;;4.94;100.00;98950.73;4465254;79;86360;-75
2021/03/17 09:13:53;;;;;;;21.60;10.68;;;;;;;4.68;100.00;98936.25;4285524;80;28605;-77
2021/03/17 09:20:00;;;;;;;19.92;9.55;;;;;;;4.99;100.00;98942.16;4258957;81;28639;-75
2021/03/17 09:26:03;;;;;;;16.40;8.58;;;;;;;5.25;100.00;98940.65;4320637;81;28568;-85
2021/03/17 09:32:07;;;;;;;18.67;9.68;;;;;;;4.79;100.00;98944.72;4251579;81;28547;-83
2021/03/17 09:38:14;;;;;;;19.75;9.63;;;;;;;5.05;100.00;98944.04;4312628;81;28579;-81
2021/03/17 09:44:21;;;;;;;15.95;8.18;;;;;;;5.08;100.00;98946.83;4261515;81;28609;-78
2021/03/17 09:50:26;;;;;;;14.68;7.35;;;;;;;4.87;100.00;98949.89;4298701;80;28562;-78
2021/03/17 09:56:46;;;;;;;18.55;9.58;;;;;;;4.79;100.00;98951.38;4302939;80;28562;-79
2021/03/17 10:02:48;;;;;;;17.90;8.13;;;;;;;4.92;100.00;98942.64;4227511;83;28643;-78
2021/03/17 10:08:55;;;;;;;15.85;7.75;;;;;;;4.82;100.00;98957.14;4179526;83;28592;-80
2021/03/17 10:15:04;;;;;;;15.03;7.25;;;;;;;4.61;100.00;98966.00;4245880;81;28549;-80
2021/03/17 10:21:08;;;;;;;17.42;8.25;;;;;;;4.96;100.00;98952.72;4184613;84;28583;-80
2021/03/17 10:27:14;;;;;;;20.88;8.65;;;;;;;5.35;100.00;98952.26;4190090;84;28581;-80
2021/03/17 10:33:21;;;;;;;17.05;6.97;;;;;;;4.73;100.00;98955.64;4198043;84;28573;-78
2021/03/17 10:39:35;;;;;;;16.65;7.45;;;;;;;5.09;100.00;98956.47;4187857;84;28683;-78
2021/03/17 10:45:53;;;;;;;20.02;8.98;;;;;;;5.32;100.00;98952.66;4193418;84;28553;-77
2021/03/17 10:51:57;;;;;;;20.72;9.18;;;;;;;5.56;100.00;98944.66;4193757;84;28574;-78
2021/03/17 10:58:22;;;;;;;16.35;8.08;;;;;;;5.00;100.00;98943.83;4247669;83;28647;-78
2021/03/17 11:04:25;;;;;;;20.97;9.40;;;;;;;5.34;100.00;98939.95;4257152;81;28574;-78
2021/03/17 11:10:54;;;;;;;18.07;8.95;;;;;;;5.39;100.00;98929.53;4334278;81;28568;-74
2021/03/17 11:17:06;;;;;;;19.15;8.15;;;;;;;5.48;100.00;98932.33;4317903;81;28633;-74
2021/03/17 11:23:21;;;;;;;14.47;7.20;;;;;;;5.19;100.00;98934.27;4263561;81;28550;-74
2021/03/17 11:29:30;;;;;;;14.43;6.47;;;;;;;5.52;100.00;98936.23;4320130;81;28579;-75
2021/03/17 11:35:32;;;;;;;13.08;6.03;;;;;;;5.11;100.00;98949.92;4292397;81;28540;-75
2021/03/17 11:41:39;;;;;;;12.30;6.12;;;;;;;5.13;100.00;98933.72;4279973;81;28552;-75
2021/03/17 11:47:41;;;;;;;13.95;7.05;;;;;;;5.68;100.00;98932.38;4287002;81;28561;-75
2021/03/17 11:53:43;;;;;;;10.58;5.72;;;;;;;5.55;99.39;98939.02;4306743;81;28730;-84
2021/03/17 11:59:45;;;;;;;10.32;5.30;;;;;;;5.28;98.55;98935.75;4310961;81;28605;-85
2021/03/17 12:05:49;;;;;;;12.73;5.53;;;;;;;5.54;94.77;98946.18;4312981;82;28600;-87
2021/03/17 12:11:54;;;;;;;10.70;5.85;;;;;;;5.12;91.75;98952.90;4278006;82;28615;-81
2021/03/17 12:17:58;;;;;;;14.23;7.37;;;;;;;5.53;94.09;98927.20;4325663;81;28599;-80
2021/03/17 12:24:01;;;;;;;14.15;6.85;;;;;;;5.64;96.07;98948.48;4327131;81;28626;-81
2021/03/17 12:30:09;;;;;;;11.68;6.37;;;;;;;5.53;89.76;98941.87;4297612;80;28590;-83
2021/03/17 12:36:14;;;;;;;14.90;8.05;;;;;;;5.23;94.20;98948.03;4258799;81;28627;-82
2021/03/17 12:42:18;;;;;;;15.30;6.60;;;;;;;4.76;99.93;98969.09;4253377;81;28628;-84
2021/03/17 12:48:22;;;;;;;16.12;7.20;;;;;;;4.85;99.23;98976.72;4266329;81;28585;-84
2021/03/17 12:54:25;;;;;;;13.68;6.53;;;;;;;4.67;97.13;98995.03;4321646;81;28610;-82
2021/03/17 13:00:29;;;;;;;12.65;6.33;;;;;;;4.25;100.00;98994.37;4252486;81;28609;-82
2021/03/17 13:06:34;;;;;;;11.48;5.65;;;;;;;4.16;100.00;99013.66;4336518;81;28575;-82
2021/03/17 13:12:37;;;;;;;11.30;5.33;;;;;;;4.17;100.00;99005.17;4328723;80;28601;-82
2021/03/17 13:18:40;;;;;;;9.58;5.12;;;;;;;4.21;98.92;99008.26;4337981;80;28579;-82
2021/03/17 13:24:43;;;;;;;12.13;5.20;;;;;;;4.14;100.00;98998.88;4319360;81;28621;-77
2021/03/17 13:30:48;;;;;;;12.73;5.95;;;;;;;4.33;99.07;99005.42;4319003;80;28562;-74
2021/03/17 13:36:51;;;;;;;10.93;6.15;;;;;;;4.16;99.22;99012.33;4324776;80;28601;-77
2021/03/17 13:42:53;;;;;;;8.93;5.37;;;;;;;4.23;100.00;99017.70;4318763;81;28621;-76
2021/03/17 13:49:01;;;;;;;9.80;5.55;;;;;;;4.07;99.97;99021.44;4325071;80;28616;-77
2021/03/17 13:55:07;;;;;;;10.43;5.53;;;;;;;4.00;98.93;99043.16;4335021;81;28579;-78
2021/03/17 14:01:10;;;;;;;13.30;5.85;;;;;;;3.98;95.22;99028.73;4333307;81;28654;-79
2021/03/17 14:07:12;;;;;;;11.00;6.53;;;;;;;3.92;97.46;99044.09;4314827;81;28631;-76
2021/03/17 14:13:14;;;;;;;10.58;6.05;;;;;;;3.69;100.00;99055.70;4339957;80;28624;-77
2021/03/17 14:19:17;;;;;;;12.25;6.78;;;;;;;3.65;100.00;99058.92;4234673;83;28562;-78
2021/03/17 14:25:20;;;;;;;11.88;5.70;;;;;;;3.49;100.00;99064.77;4307887;81;28637;-76
2021/03/17 14:31:22;;;;;;;11.18;6.15;;;;;;;3.63;95.61;99057.77;4239009;83;28575;-77
2021/03/17 14:37:25;;;;;;;13.68;6.08;;;;;;;3.67;96.08;99060.39;4307581;82;28655;-76
2021/03/17 14:43:27;;;;;;;12.30;6.62;;;;;;;3.53;100.00;99051.41;4256630;83;28552;-76
2021/03/17 14:49:30;;;;;;;11.45;6.28;;;;;;;3.57;100.00;99055.34;4323678;81;28632;-75
2021/03/17 14:55:32;;;;;;;12.30;6.50;;;;;;;3.57;100.00;99058.00;4237417;83;28554;-77
2021/03/17 15:01:34;;;;;;;14.47;6.58;;;;;;;3.60;100.00;99056.32;4254804;81;28572;-76
2021/03/17 15:07:37;;;;;;;12.45;6.70;;;;;;;3.79;100.00;99047.95;4322211;81;28535;-76
2021/03/17 15:13:40;;;;;;;11.53;6.58;;;;;;;3.61;100.00;99068.60;4275521;81;28540;-76
2021/03/17 15:19:44;;;;;;;11.53;6.35;;;;;;;3.56;100.00;99064.33;4278353;83;28592;-77
2021/03/17 15:25:47;;;;;;;14.55;7.10;;;;;;;3.61;100.00;99073.08;4333558;81;28547;-76
2021/03/17 15:31:50;;;;;;;14.30;7.20;;;;;;;3.70;100.00;99075.97;4339236;81;28736;-77
2021/03/17 15:37:52;;;;;;;11.57;6.65;;;;;;;3.53;100.00;99089.96;4398763;80;28618;-76
2021/03/17 15:43:54;;;;;;;13.25;7.62;;;;;;;3.67;100.00;99084.32;4424300;80;28567;-76
2021/03/17 15:49:56;;;;;;;15.90;7.37;;;;;;;3.57;100.00;99089.91;4411206;80;28575;-76
2021/03/17 15:55:59;;;;;;;13.95;7.30;;;;;;;3.69;100.00;99080.97;4408641;80;28583;-76
2021/03/17 16:02:01;;;;;;;15.20;8.13;;;;;;;3.80;100.00;99092.98;4405971;80;28545;-76
2021/03/17 16:08:04;;;;;;;11.12;7.10;;;;;;;3.53;100.00;99102.41;4417097;78;28607;-76
2021/03/17 16:14:06;;;;;;;13.45;7.60;;;;;;;3.47;100.00;99102.16;4416684;80;28549;-76
2021/03/17 16:20:13;;;;;;;11.60;6.42;;;;;;;3.39;100.00;99106.23;4424765;78;28598;-77
2021/03/17 16:26:16;;;;;;;15.60;7.75;;;;;;;3.54;100.00;99116.87;4407925;80;28649;-76
2021/03/17 16:32:18;;;;;;;16.77;7.58;;;;;;;3.35;100.00;99121.70;4433819;78;28634;-76
2021/03/17 16:38:20;;;;;;;17.27;8.80;;;;;;;3.35;100.00;99125.70;4406388;78;28648;-77
2021/03/17 16:44:23;;;;;;;17.65;8.18;;;;;;;3.24;100.00;99128.80;4410815;80;28553;-76
2021/03/17 16:50:26;;;;;;;16.10;8.65;;;;;;;3.31;100.00;99139.04;4411294;78;28563;-77
2021/03/17 16:56:28;;;;;;;14.00;7.85;;;;;;;3.25;100.00;99152.23;4421478;80;28564;-75
2021/03/17 17:02:31;;;;;;;17.75;9.65;;;;;;;3.10;100.00;99160.16;4419575;78;28547;-77
2021/03/17 17:08:34;;;;;;;16.55;8.40;;;;;;;3.13;100.00;99164.62;4431687;78;28564;-77
2021/03/17 17:14:37;;;;;;;16.77;9.33;;;;;;;3.18;100.00;99164.08;4279847;81;28557;-79
2021/03/17 17:20:39;;;;;;;14.95;9.30;;;;;;;3.18;100.00;99166.73;4315107;80;28589;-78
2021/03/17 17:26:41;;;;;;;16.57;8.68;;;;;;;3.06;100.00;99170.31;4276437;81;28601;-73
2021/03/17 17:32:44;;;;;;;19.80;10.40;;;;;;;3.20;100.00;99179.34;4321393;81;28579;-77
2021/03/17 17:38:46;;;;;;;17.92;9.68;;;;;;;3.05;100.00;99180.63;4289240;81;28620;-79
2021/03/17 17:44:49;;;;;;;15.65;9.23;;;;;;;3.25;100.00;99182.27;4268306;81;28559;-75
2021/03/17 17:50:51;;;;;;;19.85;10.28;;;;;;;3.08;100.00;99200.70;4328206;81;28603;-83
2021/03/17 17:56:54;;;;;;;18.42;9.48;;;;;;;3.02;100.00;99199.06;4300664;81;28546;-82
2021/03/17 18:03:00;;;;;;;15.45;8.30;;;;;;;3.10;100.00;99195.51;4330409;81;28598;-77
2021/03/17 18:09:03;;;;;;;17.30;9.35;;;;;;;3.12;100.00;99198.80;4277115;81;28611;-81
2021/03/17 18:15:09;;;;;;;17.12;10.28;;;;;;;3.23;100.00;99206.88;4290125;81;28587;-82
2021/03/17 18:21:14;;;;;;;18.60;9.23;;;;;;;3.09;100.00;99208.98;4259868;81;28567;-82
2021/03/17 18:27:16;;;;;;;19.35;9.75;;;;;;;3.16;100.00;99211.23;4313249;80;28631;-73
2021/03/17 18:33:18;;;;;;;22.32;10.50;;;;;;;2.98;100.00;99206.23;4246485;81;28643;-78
2021/03/17 18:39:21;;;;;;;18.87;10.13;;;;;;;3.02;100.00;99204.38;4316277;80;28603;-78
2021/03/17 18:45:27;;;;;;;20.75;9.90;;;;;;;3.19;100.00;99210.38;4240125;81;28584;-78
2021/03/17 18:51:32;;;;;;;19.70;9.93;;;;;;;3.16;100.00;99209.91;4238162;83;28549;-77
2021/03/17 18:57:34;;;;;;;18.70;9.20;;;;;;;3.18;100.00;99213.23;4328895;81;28620;-78
2021/03/17 19:03:37;;;;;;;22.87;10.28;;;;;;;3.39;100.00;99215.20;4244883;81;28546;-77
2021/03/17 19:09:39;;;;;;;20.82;10.10;;;;;;;3.19;100.00;99213.04;4301882;80;28552;-78
2021/03/17 19:15:44;;;;;;;20.72;9.83;;;;;;;3.24;100.00;99213.83;4245327;81;28551;-78
2021/03/17 19:21:47;;;;;;;25.35;10.88;;;;;;;3.00;100.00;99218.83;4314176;80;28615;-77
2021/03/17 19:27:53;;;;;;;20.90;11.00;;;;;;;3.03;100.00;99217.98;4260888;81;28574;-79
2021/03/17 19:33:58;;;;;;;22.05;11.00;;;;;;;3.00;100.00;99218.34;4270009;81;28581;-80
2021/03/17 19:40:07;;;;;;;21.48;10.13;;;;;;;3.21;100.00;99214.20;4271711;82;28609;-78
2021/03/17 19:46:14;;;;;;;23.60;11.10;;;;;;;3.18;100.00;99217.22;4266658;81;28552;-78
2021/03/17 19:52:15;;;;;;;;;;;;;;;2.82;100.00;99225.77;4317026;80;28627;-80
2021/03/17 19:58:23;;;;;;;24.47;11.48;;;;;;;2.97;100.00;99224.02;4312079;81;20190;-78
2021/03/17 20:04:31;;;;;;;25.05;11.70;;;;;;;2.88;100.00;99221.90;4313868;81;28602;-80
2021/03/17 20:10:38;;;;;;;20.37;9.18;;;;;;;2.78;100.00;99221.30;4259881;82;28619;-80
2021/03/17 20:16:41;;;;;;;22.70;10.98;;;;;;;2.97;100.00;99228.00;4231729;83;28561;-77
2021/03/17 20:22:45;;;;;;;24.02;12.18;;;;;;;2.82;100.00;99225.28;4355291;80;28572;-76
2021/03/17 20:28:49;;;;;;;21.90;10.05;;;;;;;2.75;100.00;99225.13;4346524;79;28652;-77
2021/03/17 20:35:13;;;;;;;22.73;10.45;;;;;;;2.78;100.00;99223.47;4353036;81;28559;-77
2021/03/17 20:41:20;;;;;;;19.57;10.55;;;;;;;2.69;100.00;99225.84;4327356;81;28620;-76
2021/03/17 20:47:22;;;;;;;20.50;9.78;;;;;;;2.78;100.00;99223.96;4345796;80;28659;-81
2021/03/17 20:53:24;;;;;;;16.23;8.85;;;;;;;2.78;100.00;99232.77;4350264;81;28982;-78
2021/03/17 20:59:27;;;;;;;18.90;9.55;;;;;;;2.55;100.00;99237.19;4318046;79;28577;-75
2021/03/17 21:05:30;;;;;;;13.28;6.85;;;;;;;2.61;100.00;99233.36;4312083;81;28564;-74
2021/03/17 21:11:34;;;;;;;16.45;7.72;;;;;;;2.57;100.00;99229.39;4407573;79;28568;-75
2021/03/17 21:17:39;;;;;;;13.68;7.00;;;;;;;2.37;100.00;99228.48;4424227;79;28612;-78
2021/03/17 21:23:45;;;;;;;13.65;7.12;;;;;;;2.34;100.00;99220.88;4413704;79;28674;-78
2021/03/17 21:29:47;;;;;;;16.45;8.83;;;;;;;2.42;100.00;99219.20;4374333;80;28555;-76
2021/03/17 21:35:52;;;;;;;14.33;8.38;;;;;;;2.42;100.00;99226.64;4288404;81;28538;-76
2021/03/17 21:41:55;;;;;;;15.38;8.10;;;;;;;2.45;100.00;99226.31;4272109;81;28594;-77
2021/03/17 21:47:57;;;;;;;16.25;8.55;;;;;;;2.39;100.00;99225.67;4259808;81;28628;-76
2021/03/17 21:54:00;;;;;;;15.28;8.28;;;;;;;2.56;100.00;99217.64;4273179;81;28553;-77
2021/03/17 22:00:10;;;;;;;13.83;7.90;;;;;;;2.34;100.00;99223.53;4346660;80;28654;-78
2021/03/17 22:06:22;;;;;;;17.15;8.28;;;;;;;2.39;100.00;99223.02;4469309;79;80534;-80
2021/03/17 22:12:25;;;;;;;15.95;8.13;;;;;;;2.37;100.00;99221.85;4403925;80;28605;-79
2021/03/17 22:18:33;;;;;;;14.53;7.17;;;;;;;2.43;100.00;99224.83;4402947;80;28562;-81
2021/03/17 22:24:32;;;;;;;14.13;7.30;;;;;;;2.30;100.00;99222.72;4422859;80;28620;-79
2021/03/17 22:30:34;;;;;;;15.50;7.85;;;;;;;2.31;100.00;99217.74;4415730;80;28618;-77
2021/03/17 22:36:37;;;;;;;13.75;6.83;;;;;;;2.13;100.00;99215.34;4408545;80;28559;-79
2021/03/17 22:42:39;;;;;;;13.85;6.95;;;;;;;2.16;100.00;99214.98;4414995;80;28571;-79
2021/03/17 22:48:41;;;;;;;11.53;6.20;;;;;;;2.22;100.00;99213.80;4434236;80;28585;-79
2021/03/17 22:54:45;;;;;;;14.95;6.97;;;;;;;2.20;100.00;99214.47;4410872;80;28580;-78
2021/03/17 23:00:50;;;;;;;12.30;6.08;;;;;;;2.05;100.00;99213.55;4397295;80;28631;-78
2021/03/17 23:06:54;;;;;;;12.50;6.55;;;;;;;2.03;100.00;99212.87;4325440;81;28547;-77
2021/03/17 23:12:58;;;;;;;12.58;6.10;;;;;;;2.07;100.00;99212.88;4352864;81;28610;-77
2021/03/17 23:19:08;;;;;;;11.57;5.80;;;;;;;2.06;100.00;99206.72;4333163;81;28558;-77
2021/03/17 23:25:27;;;;;;;12.30;5.60;;;;;;;2.04;100.00;99205.27;4348948;81;28556;-77
2021/03/17 23:31:29;;;;;;;11.78;5.45;;;;;;;1.94;100.00;99208.94;4339519;81;28553;-77
2021/03/17 23:37:34;;;;;;;10.80;5.53;;;;;;;1.91;100.00;99215.89;4335215;81;28582;-78
2021/03/17 23:43:39;;;;;;;8.90;5.05;;;;;;;1.98;100.00;99215.22;4339909;81;28610;-78
2021/03/17 23:49:41;;;;;;;9.08;4.60;;;;;;;2.09;100.00;99210.87;4182572;83;28553;-78
2021/03/17 23:55:47;;;;;;;11.28;4.85;;;;;;;2.11;100.00;99219.99;4210625;84;28575;-78
